Weather at Treasure Island Naval Auxiliary Airfield [CLOSED]

Public forecast

Using degrees Fahrenheit for public forecast. Weather courtesy of forecast.io.

Closest aviation weather report (METAR) to Treasure Island Naval Auxiliary Airfield

Closest report is Metropolitan Oakland International Airport, 9.6 nm (17.7 km) SE.

2024/05/24 18:53 (retrieved 10 minutes ago)

KOAK 241853Z 24015KT 10SM OVC016 13/09 A2994 RMK AO2 SLP137 T01280089

Closest aviation forecast (TAF) to Treasure Island Naval Auxiliary Airfield

Closest forecast is Metropolitan Oakland International Airport, 9.6 nm (17.7 km) SE.

2024/05/24 18:18 Ammendment (retrieved 45 minutes ago)

TAF AMD KOAK 241816Z 2418/2524 26014KT P6SM BKN010 FM242200 26018G26KT P6SM FEW030 FM250400 27018KT P6SM BKN030 FM250800 26012KT P6SM OVC010 FM252000 25015KT P6SM SCT020